createdAt,value
2023-02-09T00:01:13.967Z,56.22
2023-02-09T00:03:43.845Z,57.83
2023-02-09T00:06:20.347Z,48.80
2023-02-09T00:08:49.546Z,45.63
2023-02-09T00:11:21.959Z,37.93
2023-02-09T00:13:49.588Z,52.17
2023-02-09T00:16:18.621Z,42.70
2023-02-09T00:18:47.631Z,42.45
2023-02-09T00:21:18.058Z,53.38
2023-02-09T00:23:47.116Z,42.45
2023-02-09T00:26:16.301Z,44.75
2023-02-09T00:28:45.751Z,48.42
2023-02-09T00:31:15.002Z,39.45
2023-02-09T00:33:44.316Z,39.50
2023-02-09T00:36:14.572Z,43.60
2023-02-09T00:38:45.208Z,43.20
2023-02-09T00:41:15.318Z,53.28
2023-02-09T00:43:44.193Z,54.40
2023-02-09T00:46:13.294Z,59.83
2023-02-09T00:48:42.391Z,45.15
2023-02-09T00:51:11.452Z,55.08
2023-02-09T00:53:40.650Z,55.50
2023-02-09T00:56:11.095Z,43.00
2023-02-09T00:58:40.583Z,45.95
2023-02-09T01:01:13.552Z,47.97
2023-02-09T01:03:42.824Z,45.25
2023-02-09T01:06:12.086Z,51.80
2023-02-09T01:08:41.240Z,54.65
2023-02-09T01:11:12.701Z,54.50
2023-02-09T01:13:41.492Z,44.83
2023-02-09T01:16:11.508Z,57.15
2023-02-09T01:18:43.112Z,34.33
2023-02-09T01:21:12.589Z,49.72
2023-02-09T01:23:41.915Z,38.70
2023-02-09T01:26:13.101Z,39.58
2023-02-09T01:28:42.085Z,40.20
2023-02-09T01:31:22.328Z,37.47
2023-02-09T01:33:52.940Z,22.98
2023-02-09T01:36:22.383Z,48.92
2023-02-09T01:38:52.367Z,37.00
2023-02-09T01:41:22.942Z,27.38
2023-02-09T01:43:53.528Z,25.77
2023-02-09T01:46:22.996Z,27.02
2023-02-09T01:48:55.637Z,43.10
2023-02-09T01:51:25.161Z,39.55
2023-02-09T01:53:54.298Z,45.75
2023-02-09T01:56:30.381Z,54.10
2023-02-09T01:58:59.749Z,48.55
2023-02-09T02:01:29.118Z,36.38
2023-02-09T02:03:58.277Z,43.90
2023-02-09T02:06:27.721Z,32.17
2023-02-09T02:08:58.723Z,34.70
2023-02-09T02:11:29.935Z,36.10
2023-02-09T02:13:58.802Z,41.97
2023-02-09T02:16:41.512Z,37.58
2023-02-09T02:19:43.022Z,28.27
2023-02-09T02:22:42.558Z,29.67
2023-02-09T02:26:01.210Z,26.85
2023-02-09T02:28:44.506Z,40.80
2023-02-09T02:31:46.947Z,42.00
2023-02-09T02:34:22.102Z,29.10
2023-02-09T02:36:57.322Z,41.63
2023-02-09T02:39:32.407Z,35.33
2023-02-09T02:42:21.592Z,31.63
2023-02-09T02:44:57.393Z,40.03
2023-02-09T02:47:28.465Z,44.47
2023-02-09T02:50:00.324Z,50.50
2023-02-09T02:52:30.942Z,23.95
2023-02-09T02:55:05.885Z,30.15
2023-02-09T02:57:38.169Z,21.58
2023-02-09T03:00:10.643Z,37.92
2023-02-09T03:02:42.017Z,40.17
2023-02-09T03:05:13.232Z,45.97
2023-02-09T03:07:42.031Z,41.30
2023-02-09T03:10:26.669Z,43.97
2023-02-09T03:13:08.092Z,31.45
2023-02-09T03:15:45.817Z,48.75
2023-02-09T03:18:22.617Z,43.95
2023-02-09T03:20:56.624Z,48.40
2023-02-09T03:23:32.184Z,34.58
2023-02-09T03:26:06.911Z,22.67
2023-02-09T03:28:38.501Z,43.67
2023-02-09T03:31:08.454Z,46.97
2023-02-09T03:36:11.665Z,47.17
2023-02-09T03:38:40.880Z,23.23
2023-02-09T03:41:09.864Z,41.33
2023-02-09T03:43:55.997Z,46.83
2023-02-09T03:46:25.236Z,41.33
2023-02-09T03:48:54.356Z,38.20
2023-02-09T03:51:24.822Z,45.93
2023-02-09T03:53:54.120Z,47.25
2023-02-09T03:56:25.007Z,21.70
2023-02-09T03:58:53.729Z,49.00
2023-02-09T04:01:22.769Z,23.05
2023-02-09T04:03:51.948Z,20.45
2023-02-09T04:06:21.041Z,44.33
2023-02-09T04:08:51.502Z,44.17
2023-02-09T04:11:22.620Z,54.55
2023-02-09T04:13:52.175Z,46.75
2023-02-09T04:16:21.364Z,51.77
2023-02-09T04:18:51.737Z,42.13
2023-02-09T04:21:23.247Z,47.33
2023-02-09T04:23:56.518Z,45.58
2023-02-09T04:26:25.697Z,51.53
2023-02-09T04:28:54.344Z,48.65
2023-02-09T04:31:26.108Z,39.42
2023-02-09T04:33:55.411Z,48.20
2023-02-09T04:36:24.503Z,45.65
2023-02-09T04:38:53.592Z,38.57
2023-02-09T04:41:24.101Z,38.47
2023-02-09T04:43:52.894Z,48.80
2023-02-09T04:46:21.885Z,35.75
2023-02-09T04:48:51.004Z,33.72
2023-02-09T04:51:20.274Z,31.33
2023-02-09T04:53:49.556Z,46.45
2023-02-09T04:56:18.906Z,48.42
2023-02-09T04:59:17.839Z,46.83
2023-02-09T05:01:46.946Z,37.30
2023-02-09T05:04:17.160Z,48.90
2023-02-09T05:06:46.288Z,29.10
2023-02-09T05:09:15.481Z,39.47
2023-02-09T05:11:44.925Z,26.75
2023-02-09T05:14:15.585Z,38.08
2023-02-09T05:16:44.367Z,29.83
2023-02-09T05:19:13.980Z,37.43
2023-02-09T05:21:43.346Z,32.78
2023-02-09T05:24:12.487Z,43.85
2023-02-09T05:26:41.522Z,41.23
2023-02-09T05:29:10.511Z,49.88
2023-02-09T05:31:41.093Z,44.22
2023-02-09T05:34:10.520Z,32.38
2023-02-09T05:36:39.662Z,51.20
2023-02-09T05:39:08.784Z,34.53
2023-02-09T05:41:55.253Z,41.40
2023-02-09T05:44:24.410Z,46.33
2023-02-09T05:46:54.646Z,43.65
2023-02-09T05:49:23.681Z,49.83
2023-02-09T05:51:53.744Z,35.80
2023-02-09T05:54:23.006Z,32.40
2023-02-09T05:56:52.370Z,47.30
2023-02-09T05:59:22.190Z,45.67
2023-02-09T06:01:50.908Z,51.00
2023-02-09T06:04:22.121Z,40.42
2023-02-09T06:06:51.613Z,40.03
2023-02-09T06:09:21.217Z,48.83
2023-02-09T06:11:50.879Z,31.20
2023-02-09T06:14:20.445Z,49.67
2023-02-09T06:16:49.216Z,31.60
2023-02-09T06:19:21.410Z,50.95
2023-02-09T06:21:50.639Z,49.58
2023-02-09T06:24:19.776Z,45.93
2023-02-09T06:26:48.755Z,33.30
2023-02-09T06:29:18.936Z,37.47
2023-02-09T06:31:47.632Z,28.48
2023-02-09T06:34:17.137Z,28.90
2023-02-09T06:36:47.920Z,35.80
2023-02-09T06:39:17.494Z,29.92
2023-02-09T06:41:46.621Z,29.23
2023-02-09T06:44:15.798Z,37.60
2023-02-09T06:49:14.436Z,41.65
2023-02-09T06:51:43.938Z,44.53
2023-02-09T06:54:14.764Z,34.55
2023-02-09T06:56:44.076Z,27.67
2023-02-09T06:59:13.473Z,27.30
2023-02-09T07:01:42.623Z,35.13
2023-02-09T07:04:11.883Z,44.33
2023-02-09T07:06:41.325Z,43.58
2023-02-09T07:09:10.655Z,28.27
2023-02-09T07:11:42.126Z,32.25
2023-02-09T07:14:11.394Z,28.15
2023-02-09T07:16:40.314Z,31.50
2023-02-09T07:19:09.616Z,20.23
2023-02-09T07:21:38.907Z,32.03
2023-02-09T07:24:08.415Z,22.33
2023-02-09T07:26:37.811Z,36.25
2023-02-09T07:29:08.514Z,43.60
2023-02-09T07:31:37.795Z,45.22
2023-02-09T07:34:09.810Z,23.83
2023-02-09T07:36:39.066Z,39.75
2023-02-09T07:39:08.574Z,31.08
2023-02-09T07:41:39.305Z,43.37
2023-02-09T07:44:10.605Z,36.83
2023-02-09T07:46:39.643Z,42.92
2023-02-09T07:49:09.046Z,39.37
2023-02-09T07:51:38.312Z,31.52
2023-02-09T07:54:08.674Z,32.28
2023-02-09T07:56:39.737Z,32.10
2023-02-09T07:59:13.216Z,31.73
2023-02-09T08:01:42.145Z,46.58
2023-02-09T08:04:11.588Z,41.30
2023-02-09T08:06:45.326Z,41.20
2023-02-09T08:09:16.708Z,45.58
2023-02-09T08:11:48.812Z,33.17
2023-02-09T08:14:24.069Z,44.38
2023-02-09T08:17:16.134Z,33.45
2023-02-09T08:19:46.090Z,37.22
2023-02-09T08:22:17.357Z,20.05
2023-02-09T08:24:46.663Z,40.65
2023-02-09T08:27:15.859Z,41.60
2023-02-09T08:29:48.629Z,35.63
2023-02-09T08:32:18.747Z,34.72
2023-02-09T08:34:48.111Z,37.73
2023-02-09T08:37:17.300Z,22.27
2023-02-09T08:39:46.548Z,32.28
2023-02-09T08:42:15.778Z,22.83
2023-02-09T08:44:46.975Z,42.77
2023-02-09T08:47:16.131Z,38.58
2023-02-09T08:49:44.895Z,45.25
2023-02-09T08:52:15.487Z,26.58
2023-02-09T08:54:44.742Z,34.38
2023-02-09T08:57:13.902Z,41.28
2023-02-09T08:59:43.345Z,44.38
2023-02-09T09:02:13.862Z,44.40
2023-02-09T09:04:42.726Z,50.88
2023-02-09T09:07:12.031Z,44.60
2023-02-09T09:09:41.266Z,46.47
2023-02-09T09:12:10.647Z,47.38
2023-02-09T09:14:40.590Z,46.53
2023-02-09T09:19:40.666Z,42.45
2023-02-09T09:22:09.748Z,32.42
2023-02-09T09:24:41.920Z,44.10
2023-02-09T09:27:12.546Z,47.92
2023-02-09T09:29:41.798Z,37.05
2023-02-09T09:32:13.974Z,49.35
2023-02-09T09:34:44.809Z,49.17
2023-02-09T09:37:14.645Z,43.97
2023-02-09T09:39:47.170Z,46.88
2023-02-09T09:42:24.179Z,45.88
2023-02-09T09:44:53.818Z,39.67
2023-02-09T09:47:27.904Z,46.47
2023-02-09T09:49:59.030Z,40.47
2023-02-09T09:52:32.167Z,44.47
2023-02-09T09:55:02.783Z,42.72
2023-02-09T09:57:33.012Z,44.75
2023-02-09T10:02:35.183Z,38.42
2023-02-09T10:05:15.870Z,41.47
2023-02-09T10:07:50.877Z,44.30
2023-02-09T10:10:25.360Z,40.25
2023-02-09T10:12:55.121Z,41.55
2023-02-09T10:15:28.516Z,39.25
2023-02-09T10:17:57.983Z,33.75
2023-02-09T10:20:44.300Z,38.47
2023-02-09T10:23:26.213Z,39.63
2023-02-09T10:26:03.829Z,34.35
2023-02-09T10:28:37.218Z,41.90
2023-02-09T10:31:12.937Z,40.05
2023-02-09T10:33:44.820Z,40.92
2023-02-09T10:36:33.804Z,37.63
2023-02-09T10:39:21.360Z,35.10
2023-02-09T10:41:52.439Z,37.90
2023-02-09T10:44:24.349Z,34.78
2023-02-09T10:47:11.008Z,25.73
2023-02-09T10:49:41.194Z,30.10
2023-02-09T10:52:19.908Z,28.05
2023-02-09T10:54:51.520Z,31.00
2023-02-09T10:57:26.649Z,27.60
2023-02-09T10:59:58.327Z,15.45
2023-02-09T11:02:36.485Z,23.10
2023-02-09T11:05:22.400Z,15.43
2023-02-09T11:07:56.364Z,18.35
2023-02-09T11:10:26.228Z,18.70
2023-02-09T11:12:55.302Z,22.15
2023-02-09T11:15:27.964Z,22.48
2023-02-09T11:18:00.750Z,14.55
2023-02-09T11:20:33.779Z,14.18
2023-02-09T11:23:24.738Z,18.30
2023-02-09T11:25:59.516Z,17.00
2023-02-09T11:29:08.889Z,17.48
2023-02-09T11:32:20.201Z,11.50
2023-02-09T11:35:39.516Z,12.65
2023-02-09T11:38:53.529Z,20.05
2023-02-09T11:42:22.686Z,20.85
2023-02-09T11:45:35.221Z,13.55
2023-02-09T11:48:46.847Z,12.35
2023-02-09T11:52:00.478Z,12.55
2023-02-09T11:55:24.713Z,18.80
2023-02-09T11:58:59.758Z,14.88
2023-02-09T12:02:23.680Z,17.83
2023-02-09T12:05:33.623Z,15.50
2023-02-09T12:08:52.153Z,18.08
2023-02-09T12:12:09.747Z,13.52
2023-02-09T12:15:21.848Z,18.80
2023-02-09T12:18:33.552Z,17.23
2023-02-09T12:21:43.068Z,23.23
2023-02-09T12:25:15.958Z,17.90
2023-02-09T12:28:45.791Z,19.58
2023-02-09T12:32:30.939Z,20.27
2023-02-09T12:35:41.163Z,19.10
2023-02-09T12:39:05.208Z,19.55
2023-02-09T12:42:29.484Z,16.30
2023-02-09T12:45:41.739Z,17.77
2023-02-09T12:48:53.244Z,16.23
2023-02-09T12:52:18.567Z,17.42
2023-02-09T12:55:28.741Z,12.25
2023-02-09T12:58:56.189Z,18.50
2023-02-09T13:02:27.865Z,18.45
2023-02-09T13:05:39.112Z,19.80
2023-02-09T13:08:50.591Z,15.25
2023-02-09T13:12:03.993Z,16.77
2023-02-09T13:15:15.671Z,13.70
2023-02-09T13:18:30.924Z,18.83
2023-02-09T13:21:49.851Z,18.02
2023-02-09T13:25:01.649Z,15.80
2023-02-09T13:28:17.043Z,14.20
2023-02-09T13:31:37.046Z,16.05
2023-02-09T13:34:50.044Z,12.82
2023-02-09T13:38:01.182Z,12.18
2023-02-09T13:40:53.403Z,16.83
2023-02-09T13:43:29.762Z,12.57
2023-02-09T13:46:00.090Z,11.57
2023-02-09T13:51:01.922Z,16.73
2023-02-09T13:53:32.582Z,11.57
2023-02-09T13:56:02.116Z,15.85
2023-02-09T13:58:32.765Z,12.40
2023-02-09T14:01:06.207Z,15.32
2023-02-09T14:03:42.692Z,13.00
2023-02-09T14:06:24.222Z,11.75
2023-02-09T14:08:53.983Z,16.98
2023-02-09T14:11:41.399Z,9.93
2023-02-09T14:14:12.575Z,12.20
2023-02-09T14:16:53.035Z,15.07
2023-02-09T14:19:27.769Z,16.50
2023-02-09T14:21:58.473Z,16.80
2023-02-09T14:24:28.815Z,14.18
2023-02-09T14:27:04.919Z,16.88
2023-02-09T14:29:35.997Z,18.27
2023-02-09T14:32:32.426Z,14.23
2023-02-09T14:35:11.134Z,15.77
2023-02-09T14:37:46.243Z,16.42
2023-02-09T14:40:23.318Z,15.13
2023-02-09T14:43:02.222Z,16.38
2023-02-09T14:45:38.558Z,13.15
2023-02-09T14:48:19.941Z,16.85
2023-02-09T14:50:51.538Z,11.00
2023-02-09T14:53:23.345Z,14.68
2023-02-09T14:55:52.159Z,18.25
2023-02-09T14:58:23.560Z,14.75
2023-02-09T15:00:54.302Z,10.88
2023-02-09T15:03:23.729Z,20.50
2023-02-09T15:05:57.057Z,14.32
2023-02-09T15:08:28.952Z,13.57
2023-02-09T15:11:00.240Z,12.75
2023-02-09T15:13:30.491Z,18.73
2023-02-09T15:18:28.878Z,15.52
2023-02-09T15:20:59.764Z,12.33
2023-02-09T15:23:30.549Z,18.35
2023-02-09T15:26:00.769Z,12.82
2023-02-09T15:28:32.297Z,14.50
2023-02-09T15:31:02.908Z,13.80
2023-02-09T15:33:32.303Z,17.17
2023-02-09T15:36:02.212Z,17.52
2023-02-09T15:41:21.009Z,17.52
2023-02-09T15:44:07.292Z,18.48
2023-02-09T15:46:55.370Z,15.43
2023-02-09T15:49:25.185Z,17.20
2023-02-09T15:51:55.172Z,18.05
2023-02-09T15:54:30.456Z,21.00
2023-02-09T15:57:00.162Z,20.55
2023-02-09T15:59:29.343Z,18.63
2023-02-09T16:02:00.217Z,18.85
2023-02-09T16:04:29.394Z,23.02
2023-02-09T16:06:58.586Z,25.27
2023-02-09T16:09:30.998Z,26.87
2023-02-09T16:12:00.312Z,24.85
2023-02-09T16:14:31.823Z,26.15
2023-02-09T16:17:01.032Z,23.60
2023-02-09T16:19:29.890Z,28.52
2023-02-09T16:21:59.892Z,20.95
2023-02-09T16:24:32.091Z,22.00
2023-02-09T16:27:01.798Z,27.10
2023-02-09T16:29:30.867Z,27.88
2023-02-09T16:31:59.934Z,26.85
2023-02-09T16:34:30.872Z,29.75
2023-02-09T16:37:00.222Z,27.70
2023-02-09T16:39:33.955Z,27.30
2023-02-09T16:42:03.952Z,21.15
2023-02-09T16:44:35.251Z,28.90
2023-02-09T16:47:04.716Z,26.25
2023-02-09T16:49:36.889Z,17.23
2023-02-09T16:52:08.953Z,29.27
2023-02-09T16:54:43.978Z,30.67
2023-02-09T16:57:15.061Z,28.60
2023-02-09T16:59:44.379Z,29.17
2023-02-09T17:02:38.235Z,29.52
2023-02-09T17:05:18.710Z,24.20
2023-02-09T17:07:54.448Z,23.67
2023-02-09T17:10:28.533Z,28.10
2023-02-09T17:12:57.638Z,25.08
2023-02-09T17:15:31.524Z,23.30
2023-02-09T17:18:03.314Z,32.05
2023-02-09T17:20:37.758Z,20.65
2023-02-09T17:23:07.147Z,30.15
2023-02-09T17:25:38.349Z,30.27
2023-02-09T17:28:07.397Z,22.30
2023-02-09T17:30:36.475Z,19.10
2023-02-09T17:33:07.402Z,28.50
2023-02-09T17:38:31.213Z,20.60
2023-02-09T17:41:02.460Z,21.77
2023-02-09T17:43:32.954Z,23.20
2023-02-09T17:46:02.186Z,19.88
2023-02-09T17:48:31.380Z,17.00
2023-02-09T17:51:03.471Z,29.98
2023-02-09T17:53:35.649Z,27.33
2023-02-09T17:56:08.501Z,22.02
2023-02-09T17:58:37.232Z,30.75
2023-02-09T18:01:14.491Z,25.58
2023-02-09T18:03:44.121Z,19.63
2023-02-09T18:06:15.347Z,20.63
2023-02-09T18:08:44.448Z,18.95
2023-02-09T18:11:16.107Z,17.10
2023-02-09T18:13:45.393Z,25.15
2023-02-09T18:16:14.834Z,16.02
2023-02-09T18:18:45.112Z,25.40
2023-02-09T18:23:43.908Z,24.45
2023-02-09T18:26:14.499Z,27.65
2023-02-09T18:28:43.718Z,28.73
2023-02-09T18:31:16.041Z,22.77
2023-02-09T18:33:45.375Z,29.50
2023-02-09T18:36:17.065Z,19.52
2023-02-09T18:38:47.262Z,17.50
2023-02-09T18:43:47.712Z,16.00
2023-02-09T18:46:19.752Z,22.40
2023-02-09T18:48:48.935Z,20.20
2023-02-09T18:51:18.121Z,19.40
2023-02-09T18:53:47.358Z,19.98
2023-02-09T18:56:20.618Z,15.37
2023-02-09T18:58:50.634Z,18.27
2023-02-09T19:01:21.585Z,20.33
2023-02-09T19:03:54.389Z,16.00
2023-02-09T19:06:25.458Z,16.63
2023-02-09T19:08:54.701Z,16.63
2023-02-09T19:11:25.389Z,25.20
2023-02-09T19:14:11.903Z,23.98
2023-02-09T19:16:42.161Z,20.15
2023-02-09T19:19:13.475Z,20.42
2023-02-09T19:21:42.716Z,14.82
2023-02-09T19:24:12.040Z,16.37
2023-02-09T19:26:42.645Z,23.77
2023-02-09T19:29:12.041Z,18.88
2023-02-09T19:31:41.800Z,22.40
2023-02-09T19:34:11.606Z,14.45
2023-02-09T19:36:42.337Z,22.42
2023-02-09T19:39:13.069Z,19.75
2023-02-09T19:41:47.116Z,18.02
2023-02-09T19:44:16.926Z,17.63
2023-02-09T19:46:45.849Z,21.08
2023-02-09T19:49:16.769Z,20.25
2023-02-09T19:51:47.616Z,24.08
2023-02-09T19:54:16.935Z,17.45
2023-02-09T19:56:47.657Z,20.70
2023-02-09T19:59:17.687Z,19.77
2023-02-09T20:01:46.527Z,19.75
2023-02-09T20:04:15.867Z,17.83
2023-02-09T20:06:45.353Z,21.63
2023-02-09T20:09:16.588Z,24.30
2023-02-09T20:14:16.662Z,20.33
2023-02-09T20:16:45.347Z,14.25
2023-02-09T20:19:14.605Z,14.63
2023-02-09T20:21:43.790Z,11.95
2023-02-09T20:24:13.834Z,16.48
2023-02-09T20:26:44.522Z,17.63
2023-02-09T20:29:16.897Z,15.70
2023-02-09T20:31:45.873Z,22.75
2023-02-09T20:34:16.283Z,18.93
2023-02-09T20:36:48.170Z,22.73
2023-02-09T20:39:17.995Z,24.20
2023-02-09T20:42:02.226Z,23.77
2023-02-09T20:44:50.462Z,19.50
2023-02-09T20:47:19.850Z,17.92
2023-02-09T20:49:48.830Z,17.67
2023-02-09T20:52:18.024Z,15.45
2023-02-09T20:54:47.248Z,17.55
2023-02-09T20:57:16.624Z,21.83
2023-02-09T20:59:47.248Z,23.77
2023-02-09T21:02:16.610Z,16.30
2023-02-09T21:04:45.488Z,21.60
2023-02-09T21:07:14.940Z,22.35
2023-02-09T21:09:45.212Z,18.33
2023-02-09T21:12:14.730Z,17.90
2023-02-09T21:14:46.533Z,19.23
2023-02-09T21:17:17.164Z,18.23
2023-02-09T21:19:46.136Z,19.98
2023-02-09T21:22:16.818Z,16.38
2023-02-09T21:24:46.491Z,20.50
2023-02-09T21:27:16.129Z,19.23
2023-02-09T21:29:45.444Z,24.35
2023-02-09T21:32:14.543Z,23.58
2023-02-09T21:34:45.708Z,17.48
2023-02-09T21:37:15.218Z,20.10
2023-02-09T21:39:44.434Z,24.63
2023-02-09T21:42:30.771Z,20.40
2023-02-09T21:45:00.645Z,18.58
2023-02-09T21:47:31.055Z,22.02
2023-02-09T21:50:02.018Z,19.80
2023-02-09T21:52:31.725Z,16.80
2023-02-09T21:55:00.850Z,23.77
2023-02-09T21:57:29.925Z,21.90
2023-02-09T22:00:04.552Z,22.00
2023-02-09T22:02:34.028Z,19.17
2023-02-09T22:05:04.918Z,21.10
2023-02-09T22:07:34.602Z,23.08
2023-02-09T22:10:03.691Z,22.98
2023-02-09T22:12:34.296Z,22.88
2023-02-09T22:15:03.817Z,16.58
2023-02-09T22:17:32.895Z,20.50
2023-02-09T22:20:03.433Z,23.80
2023-02-09T22:22:32.220Z,22.50
2023-02-09T22:25:01.369Z,16.77
2023-02-09T22:27:30.497Z,17.52
2023-02-09T22:30:00.541Z,22.77
2023-02-09T22:32:29.745Z,24.55
2023-02-09T22:34:58.773Z,25.13
2023-02-09T22:37:29.084Z,22.77
2023-02-09T22:39:58.729Z,21.40
2023-02-09T22:42:27.965Z,21.65
2023-02-09T22:44:57.110Z,20.23
2023-02-09T22:47:26.188Z,24.48
2023-02-09T22:49:55.026Z,23.25
2023-02-09T22:52:24.400Z,22.20
2023-02-09T22:54:55.025Z,24.52
2023-02-09T22:57:25.208Z,24.23
2023-02-09T23:02:22.980Z,22.85
2023-02-09T23:04:51.742Z,23.65
2023-02-09T23:07:20.866Z,20.65
2023-02-09T23:09:51.936Z,22.23
2023-02-09T23:12:22.554Z,23.00
2023-02-09T23:14:52.997Z,22.23
2023-02-09T23:17:23.104Z,23.02
2023-02-09T23:19:51.869Z,21.38
2023-02-09T23:22:21.031Z,21.50
2023-02-09T23:24:50.041Z,21.52
2023-02-09T23:27:19.521Z,21.63
2023-02-09T23:29:50.033Z,22.08
2023-02-09T23:32:19.435Z,18.90
2023-02-09T23:34:48.028Z,21.52
2023-02-09T23:37:19.089Z,21.25
2023-02-09T23:40:04.055Z,22.65
2023-02-09T23:42:33.216Z,18.10
2023-02-09T23:45:03.744Z,22.10
2023-02-09T23:47:32.888Z,20.92
2023-02-09T23:50:01.917Z,18.80
2023-02-09T23:52:30.607Z,21.00
2023-02-09T23:54:59.833Z,20.15
2023-02-09T23:57:30.188Z,22.23
